Time;durP1;ratioP1;P1;durP2;ratioP2;P2;SDS_P1;SDS_P2;PMS_P1;PMS_P2;Temp;Humidity;BMP_temperature;BMP_pressure;BME280_temperature;BME280_humidity;BME280_pressure;Samples;Min_cycle;Max_cycle;Signal;HPM_P1;HPM_P2
2023/11/13 00:01:30;;;;;;;7.85;5.97;;;;;;;4.74;100.00;100770.84;5089979;28;20103;-34
2023/11/13 00:03:56;;;;;;;5.90;5.27;;;;;;;4.82;100.00;100768.00;5090124;28;20046;-35
2023/11/13 00:06:21;;;;;;;11.02;6.72;;;;;;;4.76;100.00;100763.44;5090165;28;20304;-34
2023/11/13 00:08:46;;;;;;;7.67;5.93;;;;;;;4.77;100.00;100759.72;5079361;28;20500;-34
2023/11/13 00:11:13;;;;;;;6.77;5.67;;;;;;;4.80;100.00;100745.94;5076833;28;20032;-34
2023/11/13 00:13:38;;;;;;;6.72;6.00;;;;;;;4.77;100.00;100738.28;5076198;28;20032;-34
2023/11/13 00:16:04;;;;;;;8.73;6.40;;;;;;;4.79;100.00;100724.72;5076423;28;20029;-34
2023/11/13 00:18:30;;;;;;;6.82;5.90;;;;;;;4.83;100.00;100734.84;5076127;28;20563;-34
2023/11/13 00:20:55;;;;;;;7.03;5.63;;;;;;;4.87;100.00;100736.09;5076352;28;20472;-34
2023/11/13 00:23:20;;;;;;;7.73;5.97;;;;;;;4.85;100.00;100748.03;5075789;28;20392;-34
2023/11/13 00:25:45;;;;;;;7.50;5.73;;;;;;;4.91;100.00;100745.41;5076580;28;20024;-34
2023/11/13 00:28:11;;;;;;;6.63;5.77;;;;;;;4.88;100.00;100735.09;5076793;28;20371;-34
2023/11/13 00:30:38;;;;;;;8.63;6.03;;;;;;;4.82;100.00;100716.28;5076175;28;20093;-34
2023/11/13 00:33:03;;;;;;;8.45;5.68;;;;;;;4.86;100.00;100721.03;5075095;28;20377;-34
2023/11/13 00:35:29;;;;;;;7.87;5.97;;;;;;;4.86;100.00;100713.00;5076128;28;20049;-34
2023/11/13 00:37:57;;;;;;;7.60;6.30;;;;;;;4.81;100.00;100694.00;5075689;28;20449;-34
2023/11/13 00:40:24;;;;;;;8.52;6.30;;;;;;;4.85;100.00;100695.28;5076285;28;20048;-34
2023/11/13 00:42:49;;;;;;;8.45;6.82;;;;;;;4.80;100.00;100684.31;5075617;28;20025;-34
2023/11/13 00:45:15;;;;;;;9.93;6.13;;;;;;;4.83;100.00;100691.97;5076221;28;20031;-34
2023/11/13 00:47:40;;;;;;;9.57;7.03;;;;;;;4.84;100.00;100699.00;5075540;28;20086;-34
2023/11/13 00:50:06;;;;;;;9.40;6.57;;;;;;;4.78;100.00;100689.06;5075827;28;20028;-34
2023/11/13 00:52:31;;;;;;;8.98;6.93;;;;;;;4.82;100.00;100709.06;5075453;28;20021;-34
2023/11/13 00:54:57;;;;;;;8.07;6.53;;;;;;;4.84;100.00;100690.94;5076003;28;20029;-34
2023/11/13 00:57:22;;;;;;;9.80;6.87;;;;;;;4.88;100.00;100686.84;5075177;28;20435;-34
2023/11/13 00:59:48;;;;;;;7.57;5.97;;;;;;;4.85;100.00;100687.25;5075690;28;20420;-34
2023/11/13 01:02:13;;;;;;;8.20;6.77;;;;;;;4.88;100.00;100683.31;5075023;28;20273;-34
2023/11/13 01:04:39;;;;;;;9.18;6.40;;;;;;;4.88;100.00;100681.50;5075822;28;20024;-34
2023/11/13 01:07:04;;;;;;;7.22;6.22;;;;;;;4.87;100.00;100685.19;5074900;28;20528;-35
2023/11/13 01:09:30;;;;;;;8.27;6.37;;;;;;;4.82;100.00;100671.53;5075769;28;20476;-35
2023/11/13 01:11:55;;;;;;;7.77;6.30;;;;;;;4.76;100.00;100664.31;5075427;28;20277;-35
2023/11/13 01:14:20;;;;;;;8.00;6.70;;;;;;;4.91;100.00;100686.44;5075281;28;20028;-35
2023/11/13 01:16:46;;;;;;;9.40;6.70;;;;;;;4.63;100.00;100640.13;5075788;28;20025;-35
2023/11/13 01:19:11;;;;;;;9.63;7.17;;;;;;;4.94;100.00;100692.44;5074543;28;20267;-35
2023/11/13 01:21:37;;;;;;;6.28;5.47;;;;;;;5.00;100.00;100668.34;5075195;28;20719;-35
2023/11/13 01:24:03;;;;;;;9.13;6.23;;;;;;;4.98;100.00;100670.41;5075202;28;20361;-35
2023/11/13 01:26:28;;;;;;;6.80;6.10;;;;;;;5.03;100.00;100662.59;5075645;28;20365;-35
2023/11/13 01:28:54;;;;;;;7.17;6.43;;;;;;;4.89;100.00;100651.00;5075065;28;20035;-35
2023/11/13 01:31:19;;;;;;;8.83;6.83;;;;;;;5.01;100.00;100666.50;5074770;28;20032;-35
2023/11/13 01:33:44;;;;;;;9.53;6.63;;;;;;;4.92;100.00;100652.44;5074390;28;20030;-35
2023/11/13 01:36:09;;;;;;;8.13;6.43;;;;;;;5.01;100.00;100659.28;5074904;28;20067;-35
2023/11/13 01:38:35;;;;;;;6.87;6.07;;;;;;;4.96;100.00;100653.69;5074606;28;20040;-35
2023/11/13 01:41:00;;;;;;;10.48;7.55;;;;;;;4.97;100.00;100651.84;5074245;28;20031;-35
2023/11/13 01:43:26;;;;;;;12.43;6.50;;;;;;;5.02;100.00;100652.06;5074524;28;20085;-35
2023/11/13 01:45:54;;;;;;;11.48;6.35;;;;;;;5.08;100.00;100656.66;5074693;28;20024;-35
2023/11/13 01:48:21;;;;;;;9.07;6.60;;;;;;;5.04;100.00;100648.19;5074290;28;20475;-35
2023/11/13 01:50:48;;;;;;;6.28;5.40;;;;;;;5.08;100.00;100648.63;5074659;28;20067;-35
2023/11/13 01:53:18;;;;;;;7.82;5.78;;;;;;;5.05;100.00;100647.16;5074290;28;20031;-35
2023/11/13 01:55:45;;;;;;;6.82;6.13;;;;;;;4.97;100.00;100646.47;5073695;28;20024;-35
2023/11/13 01:58:14;;;;;;;7.78;6.15;;;;;;;5.05;100.00;100641.78;5074487;28;20075;-35
2023/11/13 02:00:40;;;;;;;8.43;5.90;;;;;;;5.00;100.00;100630.00;5074222;28;20028;-35
2023/11/13 02:03:06;;;;;;;7.15;5.50;;;;;;;5.06;100.00;100646.09;5074088;28;20035;-35
2023/11/13 02:05:32;;;;;;;8.18;5.78;;;;;;;5.06;100.00;100656.00;5074012;28;20400;-35
2023/11/13 02:07:57;;;;;;;8.07;5.72;;;;;;;5.07;100.00;100655.78;5074232;28;20051;-35
2023/11/13 02:10:23;;;;;;;8.67;6.33;;;;;;;5.07;100.00;100653.13;5074288;28;20082;-35
2023/11/13 02:12:49;;;;;;;8.50;6.13;;;;;;;5.10;100.00;100654.59;5073952;28;20024;-35
2023/11/13 02:15:15;;;;;;;7.10;5.20;;;;;;;5.14;100.00;100658.53;5072750;28;20025;-35
2023/11/13 02:18:00;;;;;;;6.75;6.05;;;;;;;5.12;100.00;100655.19;5073782;28;20028;-35
2023/11/13 02:20:26;;;;;;;6.40;5.72;;;;;;;5.15;100.00;100646.78;5074132;28;20032;-35
2023/11/13 02:22:51;;;;;;;7.53;5.60;;;;;;;5.14;100.00;100645.13;5073741;28;20476;-35
2023/11/13 02:25:21;;;;;;;6.40;5.80;;;;;;;5.17;100.00;100636.66;5074152;28;20032;-35
2023/11/13 02:27:49;;;;;;;8.10;5.68;;;;;;;5.19;100.00;100631.94;5073699;28;20039;-35
2023/11/13 02:30:15;;;;;;;7.10;5.32;;;;;;;5.21;100.00;100624.53;5073339;28;20473;-35
2023/11/13 02:32:40;;;;;;;7.90;6.47;;;;;;;5.19;100.00;100615.88;5073496;28;20116;-35
2023/11/13 02:35:06;;;;;;;7.37;5.47;;;;;;;5.12;100.00;100613.16;5074237;28;20031;-35
2023/11/13 02:37:31;;;;;;;8.50;5.95;;;;;;;5.19;100.00;100615.88;5073270;28;20071;-35
2023/11/13 02:39:57;;;;;;;7.53;5.80;;;;;;;5.16;100.00;100600.16;5073668;28;20491;-35
2023/11/13 02:42:22;;;;;;;8.67;6.10;;;;;;;5.19;100.00;100610.50;5074132;28;20495;-35
2023/11/13 02:44:48;;;;;;;7.65;5.78;;;;;;;5.16;100.00;100601.00;5073788;28;20758;-35
2023/11/13 02:47:13;;;;;;;6.60;5.37;;;;;;;5.20;100.00;100608.63;5073827;28;20102;-35
2023/11/13 02:49:38;;;;;;;7.43;5.87;;;;;;;5.16;100.00;100586.75;5073461;28;20028;-35
2023/11/13 02:52:04;;;;;;;8.53;5.70;;;;;;;5.25;100.00;100582.06;5073183;28;20036;-35
2023/11/13 02:54:30;;;;;;;8.07;5.90;;;;;;;5.27;100.00;100583.53;5073448;28;20267;-35
2023/11/13 02:56:55;;;;;;;7.93;5.45;;;;;;;5.27;100.00;100583.53;5073141;28;20303;-35
2023/11/13 02:59:20;;;;;;;8.13;5.90;;;;;;;5.27;100.00;100583.53;5073931;28;20033;-35
2023/11/13 03:01:46;;;;;;;8.97;5.43;;;;;;;5.26;100.00;100581.84;5073955;28;20037;-35
2023/11/13 03:04:11;;;;;;;9.77;6.17;;;;;;;5.31;100.00;100600.81;5073350;28;20048;-35
2023/11/13 03:06:36;;;;;;;8.33;5.40;;;;;;;5.33;100.00;100609.50;5073126;28;20033;-35
2023/11/13 03:09:03;;;;;;;7.57;5.38;;;;;;;5.39;100.00;100618.59;5074096;28;20035;-35
2023/11/13 03:11:28;;;;;;;5.93;4.82;;;;;;;5.40;100.00;100609.53;5073601;28;20051;-35
2023/11/13 03:13:53;;;;;;;13.33;5.87;;;;;;;5.38;100.00;100615.09;5072992;28;20032;-35
2023/11/13 03:16:20;;;;;;;6.53;5.43;;;;;;;5.25;100.00;100600.81;5073579;28;20467;-35
2023/11/13 03:18:45;;;;;;;8.18;5.38;;;;;;;5.40;100.00;100613.03;5073713;28;20028;-35
2023/11/13 03:21:12;;;;;;;6.37;5.40;;;;;;;5.40;100.00;100615.69;5073263;28;20055;-35
2023/11/13 03:23:37;;;;;;;7.10;4.97;;;;;;;5.42;100.00;100608.31;5073168;28;20036;-35
2023/11/13 03:26:03;;;;;;;6.80;5.43;;;;;;;5.45;100.00;100608.91;5073437;28;20032;-35
2023/11/13 03:28:29;;;;;;;;;;;;;;;5.51;100.00;100610.78;5073198;28;20500;-35
2023/11/13 03:30:54;;;;;;;6.28;4.72;;;;;;;5.46;100.00;100602.50;5073360;28;19908;-35
2023/11/13 03:33:20;;;;;;;6.77;5.80;;;;;;;5.47;100.00;100606.88;5073109;28;20111;-35
2023/11/13 03:35:46;;;;;;;7.15;5.72;;;;;;;5.48;100.00;100600.47;5073302;28;20029;-35
2023/11/13 03:38:11;;;;;;;7.33;5.80;;;;;;;5.50;100.00;100599.22;5073106;28;20032;-35
2023/11/13 03:40:37;;;;;;;7.57;5.60;;;;;;;5.51;100.00;100600.03;5073614;28;20077;-35
2023/11/13 03:43:02;;;;;;;6.60;5.80;;;;;;;5.49;100.00;100607.47;5073890;28;20032;-35
2023/11/13 03:45:28;;;;;;;6.40;5.50;;;;;;;5.47;100.00;100593.47;5077310;28;20029;-35
2023/11/13 03:47:53;;;;;;;7.07;5.83;;;;;;;5.53;100.00;100587.28;5077475;28;20107;-35
2023/11/13 03:50:19;;;;;;;7.75;5.90;;;;;;;5.34;100.00;100554.03;5076396;28;20062;-35
2023/11/13 03:52:44;;;;;;;7.60;6.80;;;;;;;5.52;100.00;100602.53;5076256;28;20075;-35
2023/11/13 03:55:10;;;;;;;7.67;5.80;;;;;;;5.43;100.00;100591.19;5076883;28;20334;-35
2023/11/13 03:57:35;;;;;;;7.57;6.45;;;;;;;5.54;100.00;100596.97;5077000;28;20049;-35
2023/11/13 04:00:01;;;;;;;8.80;6.30;;;;;;;5.53;100.00;100588.09;5077342;28;20029;-35
2023/11/13 04:02:26;;;;;;;7.38;6.50;;;;;;;5.53;100.00;100585.41;5076428;28;20081;-35
2023/11/13 04:04:51;;;;;;;10.87;7.37;;;;;;;5.52;100.00;100583.78;5076430;28;20060;-35
2023/11/13 04:07:20;;;;;;;8.97;6.37;;;;;;;5.51;100.00;100578.59;5076390;28;20028;-35
2023/11/13 04:09:46;;;;;;;6.95;5.32;;;;;;;5.60;100.00;100606.88;5077487;28;20017;-35
2023/11/13 04:12:11;;;;;;;9.95;6.50;;;;;;;5.51;100.00;100592.00;5076565;28;20064;-35
2023/11/13 04:14:37;;;;;;;7.43;6.55;;;;;;;5.52;100.00;100586.44;5076405;28;20090;-35
2023/11/13 04:17:04;;;;;;;8.23;7.27;;;;;;;5.59;100.00;100581.91;5076394;28;20020;-35
2023/11/13 04:19:29;;;;;;;7.85;6.03;;;;;;;5.63;100.00;100583.16;5075851;28;20115;-35
2023/11/13 04:21:55;;;;;;;8.25;7.20;;;;;;;5.61;100.00;100574.50;5075829;28;20035;-35
2023/11/13 04:24:21;;;;;;;8.75;6.75;;;;;;;5.61;100.00;100569.13;5076027;28;20032;-35
2023/11/13 04:26:46;;;;;;;7.50;6.70;;;;;;;5.67;100.00;100572.84;5077087;28;20036;-35
2023/11/13 04:29:11;;;;;;;10.00;7.20;;;;;;;5.66;100.00;100565.81;5076274;28;20055;-35
2023/11/13 04:31:37;;;;;;;8.43;6.93;;;;;;;5.67;100.00;100565.63;5076530;28;20047;-35
2023/11/13 04:34:05;;;;;;;11.43;7.33;;;;;;;5.71;100.00;100557.16;5076668;28;20027;-35
2023/11/13 04:36:30;;;;;;;13.65;7.50;;;;;;;5.68;100.00;100558.41;5075760;28;20052;-35
2023/11/13 04:38:56;;;;;;;11.30;7.33;;;;;;;5.68;100.00;100542.31;5075801;28;20052;-35
2023/11/13 04:41:21;;;;;;;10.60;7.67;;;;;;;5.72;100.00;100538.19;5076392;28;20309;-35
2023/11/13 04:43:47;;;;;;;12.13;8.20;;;;;;;5.72;100.00;100540.03;5075374;28;20033;-35
2023/11/13 04:46:15;;;;;;;11.77;7.80;;;;;;;5.66;100.00;100533.63;5076234;28;20028;-35
2023/11/13 04:48:40;;;;;;;12.13;8.93;;;;;;;5.72;100.00;100530.13;5075582;28;20488;-35
2023/11/13 04:51:06;;;;;;;9.77;7.57;;;;;;;5.75;100.00;100524.34;5076178;28;20024;-35
2023/11/13 04:53:32;;;;;;;11.18;8.20;;;;;;;5.75;100.00;100518.16;5075357;28;20028;-35
2023/11/13 04:55:58;;;;;;;14.75;8.95;;;;;;;5.76;100.00;100517.97;5075342;28;20107;-35
2023/11/13 04:58:23;;;;;;;10.80;8.00;;;;;;;5.74;100.00;100516.50;5075471;28;20025;-35
2023/11/13 05:00:49;;;;;;;13.90;8.80;;;;;;;5.80;100.00;100523.72;5076198;28;20603;-35
2023/11/13 05:03:14;;;;;;;13.70;8.87;;;;;;;5.79;100.00;100508.66;5075425;28;20442;-35
2023/11/13 05:05:41;;;;;;;13.70;9.13;;;;;;;5.81;100.00;100506.59;5075989;28;20036;-35
2023/11/13 05:08:06;;;;;;;16.90;8.73;;;;;;;5.83;100.00;100507.22;5075204;28;20052;-35
2023/11/13 05:10:32;;;;;;;14.88;9.48;;;;;;;5.85;100.00;100502.44;5075551;28;20059;-35
2023/11/13 05:12:58;;;;;;;14.10;9.13;;;;;;;5.82;100.00;100501.03;5074861;28;20040;-35
2023/11/13 05:15:24;;;;;;;;;;;;;;;5.89;100.00;100499.13;5076393;28;20376;-35
2023/11/13 05:17:49;;;;;;;10.38;8.25;;;;;;;5.90;100.00;100495.44;5074673;28;19916;-35
2023/11/13 05:20:16;;;;;;;14.88;9.68;;;;;;;5.93;100.00;100491.53;5075561;28;20033;-35
2023/11/13 05:22:41;;;;;;;13.20;9.55;;;;;;;5.85;100.00;100463.00;5075452;28;20036;-35
2023/11/13 05:25:08;;;;;;;16.63;10.17;;;;;;;5.97;100.00;100481.22;5074938;28;20479;-35
2023/11/13 05:27:33;;;;;;;14.63;9.98;;;;;;;5.91;100.00;100464.06;5075580;28;20270;-35
2023/11/13 05:29:58;;;;;;;14.20;9.80;;;;;;;6.00;100.00;100470.88;5075635;28;20029;-36
2023/11/13 05:32:24;;;;;;;15.63;10.43;;;;;;;6.04;100.00;100471.28;5075299;28;20254;-35
2023/11/13 05:34:49;;;;;;;21.67;11.07;;;;;;;6.05;100.00;100479.13;5074403;28;20476;-35
2023/11/13 05:37:15;;;;;;;14.95;10.60;;;;;;;6.06;100.00;100472.72;5075176;28;20457;-35
2023/11/13 05:39:41;;;;;;;15.75;10.32;;;;;;;6.10;100.00;100468.59;5075382;28;20024;-35
2023/11/13 05:42:07;;;;;;;;;;;;;;;6.13;100.00;100467.34;5075277;28;20025;-34
2023/11/13 05:44:35;;;;;;;15.60;11.25;;;;;;;6.14;100.00;100477.03;5074668;28;20398;-34
2023/11/13 05:47:07;;;;;;;18.63;11.40;;;;;;;6.16;100.00;100477.66;5075229;28;20029;-34
2023/11/13 05:49:32;;;;;;;23.15;11.73;;;;;;;6.18;100.00;100465.66;5074460;28;20028;-34
2023/11/13 05:51:58;;;;;;;19.23;11.83;;;;;;;6.18;100.00;100476.41;5074169;28;20423;-34
2023/11/13 05:54:23;;;;;;;21.43;12.87;;;;;;;6.21;100.00;100474.34;5074235;28;20103;-34
2023/11/13 05:56:49;;;;;;;24.05;11.98;;;;;;;6.23;100.00;100473.09;5074328;28;20127;-34
2023/11/13 05:59:15;;;;;;;19.73;12.47;;;;;;;6.20;100.00;100462.78;5074505;28;20052;-34
2023/11/13 06:01:41;;;;;;;20.27;12.02;;;;;;;6.25;100.00;100462.16;5074417;28;20020;-34
2023/11/13 06:04:07;;;;;;;23.15;11.68;;;;;;;6.28;100.00;100454.47;5074051;28;20353;-34
2023/11/13 06:06:32;;;;;;;17.85;11.55;;;;;;;6.28;100.00;100457.16;5073528;28;20033;-34
2023/11/13 06:08:57;;;;;;;23.50;12.10;;;;;;;6.32;100.00;100452.19;5073783;28;20024;-34
2023/11/13 06:11:23;;;;;;;30.90;14.07;;;;;;;6.35;100.00;100457.16;5073698;28;20020;-34
2023/11/13 06:13:48;;;;;;;32.27;13.67;;;;;;;6.36;100.00;100446.19;5073967;28;20067;-34
2023/11/13 06:16:14;;;;;;;21.55;12.02;;;;;;;6.36;100.00;100453.41;5074087;28;20112;-34
2023/11/13 06:18:47;;;;;;;17.47;11.50;;;;;;;6.32;100.00;100434.22;5073846;28;20497;-34
2023/11/13 06:21:12;;;;;;;21.00;12.15;;;;;;;6.40;100.00;100442.03;5074345;28;20024;-34
2023/11/13 06:23:40;;;;;;;21.97;11.97;;;;;;;6.47;100.00;100447.38;5073797;28;20035;-34
2023/11/13 06:26:07;;;;;;;20.50;12.05;;;;;;;6.48;100.00;100437.44;5074569;28;20373;-34
2023/11/13 06:28:32;;;;;;;22.75;12.80;;;;;;;6.52;100.00;100431.44;5073695;28;20119;-34
2023/11/13 06:30:59;;;;;;;23.83;13.02;;;;;;;6.58;100.00;100437.81;5073769;28;20025;-34
2023/11/13 06:33:25;;;;;;;23.27;12.27;;;;;;;6.61;100.00;100442.78;5073866;28;20087;-34
2023/11/13 06:35:50;;;;;;;19.42;11.55;;;;;;;6.63;100.00;100444.19;5073544;28;20048;-34
2023/11/13 06:38:16;;;;;;;19.50;12.48;;;;;;;6.65;100.00;100442.13;5073642;28;20457;-34
2023/11/13 06:40:42;;;;;;;22.60;12.30;;;;;;;6.65;100.00;100436.75;5073298;28;20055;-34
2023/11/13 06:43:07;;;;;;;23.60;11.88;;;;;;;6.72;100.00;100448.28;5073607;28;20032;-34
2023/11/13 06:45:33;;;;;;;22.38;12.45;;;;;;;6.74;100.00;100449.94;5074023;28;20031;-34
2023/11/13 06:47:59;;;;;;;19.80;12.52;;;;;;;6.75;100.00;100448.91;5073493;28;20025;-34
2023/11/13 06:50:24;;;;;;;22.35;12.80;;;;;;;6.79;100.00;100444.75;5074315;28;20357;-34
2023/11/13 06:52:50;;;;;;;16.80;11.93;;;;;;;6.80;100.00;100444.53;5073127;28;20029;-34
2023/11/13 06:55:16;;;;;;;20.90;12.60;;;;;;;6.80;100.00;100441.84;5073761;28;20772;-34
2023/11/13 06:57:42;;;;;;;20.25;12.73;;;;;;;6.83;100.00;100440.56;5073710;28;20087;-34
2023/11/13 07:00:09;;;;;;;21.15;12.98;;;;;;;6.72;100.00;100415.22;5073720;28;20036;-34
2023/11/13 07:02:39;;;;;;;18.92;14.23;;;;;;;6.82;100.00;100414.72;5074045;28;20025;-34
2023/11/13 07:05:05;;;;;;;21.60;13.70;;;;;;;6.96;100.00;100417.13;5073035;28;20099;-34
2023/11/13 07:07:30;;;;;;;;;;;;;;;6.96;100.00;100406.38;5073788;28;20036;-34
2023/11/13 07:09:55;;;;;;;19.77;13.57;;;;;;;6.97;100.00;100401.81;5073327;28;19909;-34
2023/11/13 07:12:21;;;;;;;21.47;14.03;;;;;;;7.04;100.00;100396.41;5072664;28;20269;-34
2023/11/13 07:14:46;;;;;;;24.93;14.10;;;;;;;7.19;100.00;100407.66;5073440;28;20052;-34
2023/11/13 07:17:11;;;;;;;22.40;13.73;;;;;;;7.23;100.00;100409.69;5073119;28;20040;-34
2023/11/13 07:19:38;;;;;;;23.33;13.13;;;;;;;7.28;100.00;100414.41;5076608;28;20060;-34
2023/11/13 07:22:03;;;;;;;22.45;13.35;;;;;;;7.48;100.00;100398.09;5077767;28;20300;-34
2023/11/13 07:24:29;;;;;;;27.92;13.57;;;;;;;7.60;100.00;100398.16;5077911;28;20029;-34
2023/11/13 07:26:54;;;;;;;19.37;12.17;;;;;;;7.65;100.00;100392.94;5077236;28;20073;-34
2023/11/13 07:29:19;;;;;;;26.03;14.17;;;;;;;7.77;100.00;100385.78;5076796;28;20031;-34
2023/11/13 07:31:45;;;;;;;18.43;13.07;;;;;;;7.89;100.00;100383.97;5077536;28;20020;-34
2023/11/13 07:34:10;;;;;;;28.47;13.80;;;;;;;7.96;100.00;100373.16;5076987;28;20525;-34
2023/11/13 07:36:36;;;;;;;26.80;12.95;;;;;;;8.05;100.00;100374.47;5076570;28;20024;-34
2023/11/13 07:39:02;;;;;;;30.43;15.30;;;;;;;8.16;100.00;100360.28;5076518;28;20028;-34
2023/11/13 07:41:27;;;;;;;;;;;;;;;8.20;100.00;100353.38;5077526;28;20473;-34
2023/11/13 07:43:56;;;;;;;32.58;17.15;;;;;;;8.35;100.00;100347.59;5076821;28;20028;-35
2023/11/13 07:46:21;;;;;;;26.75;15.98;;;;;;;8.32;100.00;100345.34;5077223;28;20107;-34
2023/11/13 07:48:46;;;;;;;26.90;15.20;;;;;;;8.29;100.00;100329.63;5077180;28;20174;-34
2023/11/13 07:51:12;;;;;;;24.57;13.73;;;;;;;8.24;100.00;100321.41;5076897;28;20020;-34
2023/11/13 07:53:38;;;;;;;29.53;16.33;;;;;;;8.40;100.00;100326.19;5076615;28;20130;-34
2023/11/13 07:56:04;;;;;;;29.80;13.93;;;;;;;8.36;100.00;100319.63;5076247;28;20289;-34
2023/11/13 07:58:29;;;;;;;26.10;13.80;;;;;;;8.49;100.00;100322.13;5077264;28;20035;-34
2023/11/13 08:00:55;;;;;;;22.50;13.00;;;;;;;8.38;100.00;100316.69;5077303;28;20028;-34
2023/11/13 08:03:22;;;;;;;21.70;12.20;;;;;;;8.33;100.00;100321.91;5076401;28;20430;-34
2023/11/13 08:05:47;;;;;;;26.27;12.77;;;;;;;8.40;100.00;100328.06;5077247;28;20078;-34
2023/11/13 08:08:19;;;;;;;26.30;10.87;;;;;;;8.50;100.00;100339.94;5076025;28;20032;-34
2023/11/13 08:10:46;;;;;;;26.40;10.95;;;;;;;8.54;100.00;100336.75;5076226;28;20147;-35
2023/11/13 08:13:13;;;;;;;22.05;10.45;;;;;;;8.49;100.00;100310.50;5076262;28;20055;-34
2023/11/13 08:15:39;;;;;;;23.50;11.85;;;;;;;8.61;100.00;100311.38;5076174;28;20530;-34
2023/11/13 08:18:04;;;;;;;32.28;12.75;;;;;;;8.60;100.00;100308.91;5075815;28;20024;-34
2023/11/13 08:20:29;;;;;;;27.23;12.48;;;;;;;8.67;100.00;100299.66;5076115;28;20024;-34
2023/11/13 08:22:56;;;;;;;24.33;11.30;;;;;;;8.67;100.00;100291.56;5076096;28;20028;-34
2023/11/13 08:25:22;;;;;;;23.50;9.73;;;;;;;8.66;100.00;100294.50;5076513;28;20021;-34
2023/11/13 08:27:51;;;;;;;19.02;7.97;;;;;;;8.72;100.00;100278.22;5076028;28;20465;-34
2023/11/13 08:30:17;;;;;;;17.98;7.63;;;;;;;8.69;100.00;100280.59;5075432;28;20063;-34
2023/11/13 08:32:43;;;;;;;15.63;7.47;;;;;;;8.70;100.00;100287.59;5075601;28;20433;-34
2023/11/13 08:35:13;;;;;;;24.50;8.88;;;;;;;8.76;100.00;100300.16;5076432;28;20028;-34
2023/11/13 08:37:39;;;;;;;21.15;8.30;;;;;;;8.59;100.00;100272.22;5075752;28;20098;-35
2023/11/13 08:40:05;;;;;;;;;;;;;;;8.77;100.00;100280.22;5076542;28;20028;-34
2023/11/13 08:42:30;;;;;;;19.08;8.05;;;;;;;8.68;100.00;100266.25;5076100;28;20432;-34
2023/11/13 08:44:56;;;;;;;19.83;7.60;;;;;;;8.72;100.00;100259.34;5075357;28;20028;-34
2023/11/13 08:47:22;;;;;;;18.88;7.30;;;;;;;8.65;100.00;100230.88;5075613;28;20069;-34
2023/11/13 08:49:47;;;;;;;17.00;6.13;;;;;;;8.77;100.00;100239.78;5075307;28;20032;-34
2023/11/13 08:52:13;;;;;;;15.43;5.37;;;;;;;8.77;100.00;100239.78;5076431;28;20024;-34
2023/11/13 08:54:38;;;;;;;19.07;6.23;;;;;;;8.73;100.00;100217.03;5076129;28;20028;-34
2023/11/13 08:57:07;;;;;;;17.20;6.25;;;;;;;8.76;100.00;100221.97;5075449;28;20052;-34
2023/11/13 08:59:35;;;;;;;16.15;5.07;;;;;;;8.61;100.00;100191.97;5075370;28;20029;-34
2023/11/13 09:02:07;;;;;;;15.98;5.05;;;;;;;8.75;100.00;100196.88;5075898;28;20025;-34
2023/11/13 09:04:36;;;;;;;18.20;5.57;;;;;;;8.75;100.00;100191.50;5076073;28;20078;-34
2023/11/13 09:07:07;;;;;;;13.95;4.47;;;;;;;8.75;100.00;100182.59;5075199;28;20029;-34
2023/11/13 09:09:33;;;;;;;14.07;5.40;;;;;;;8.80;100.00;100181.91;5074893;28;20078;-34
2023/11/13 09:12:01;;;;;;;16.65;5.68;;;;;;;8.82;100.00;100172.50;5075761;28;20028;-34
2023/11/13 09:14:27;;;;;;;14.90;5.20;;;;;;;8.70;100.00;100136.66;5075309;28;20024;-34
2023/11/13 09:16:52;;;;;;;15.00;4.65;;;;;;;8.81;100.00;100154.69;5075029;28;20452;-34
2023/11/13 09:19:19;;;;;;;11.48;4.20;;;;;;;8.82;100.00;100148.22;5075204;28;20025;-34
2023/11/13 09:21:45;;;;;;;13.18;3.85;;;;;;;8.81;100.00;100138.50;5075502;28;20034;-34
2023/11/13 09:24:13;;;;;;;11.82;3.75;;;;;;;8.79;100.00;100121.78;5074852;28;20032;-34
2023/11/13 09:26:39;;;;;;;11.02;3.63;;;;;;;8.78;100.00;100114.72;5075402;28;20033;-34
2023/11/13 09:29:05;;;;;;;11.32;3.10;;;;;;;8.80;100.00;100107.22;5074445;28;20029;-34
2023/11/13 09:31:30;;;;;;;9.23;3.17;;;;;;;8.78;100.00;100098.53;5075042;28;20024;-34
2023/11/13 09:33:55;;;;;;;12.47;3.23;;;;;;;8.72;100.00;100077.94;5075009;28;20456;-34
2023/11/13 09:36:21;;;;;;;8.77;3.10;;;;;;;8.80;100.00;100082.97;5074512;28;20060;-34
2023/11/13 09:38:51;;;;;;;10.38;2.85;;;;;;;8.72;100.00;100076.06;5074238;28;20040;-34
2023/11/13 09:41:24;;;;;;;11.63;2.80;;;;;;;8.80;100.00;100093.75;5074506;28;20055;-34
2023/11/13 09:43:49;;;;;;;7.03;2.83;;;;;;;8.78;100.00;100098.53;5074180;28;20032;-34
2023/11/13 09:46:16;;;;;;;8.65;2.88;;;;;;;8.77;100.00;100092.31;5075349;28;20039;-34
2023/11/13 09:48:51;;;;;;;6.82;3.17;;;;;;;8.79;100.00;100097.50;5074091;28;20039;-34
2023/11/13 09:51:24;;;;;;;6.55;2.88;;;;;;;8.79;100.00;100080.50;5074366;28;20039;-34
2023/11/13 09:53:50;;;;;;;7.20;3.38;;;;;;;8.81;100.00;100060.34;5074275;28;20029;-34
2023/11/13 09:56:17;;;;;;;7.07;3.28;;;;;;;8.82;100.00;100031.50;5074753;28;20059;-34
2023/11/13 09:58:43;;;;;;;6.25;2.80;;;;;;;8.78;100.00;100017.66;5074462;28;20035;-34
2023/11/13 10:01:13;;;;;;;7.80;2.55;;;;;;;8.83;100.00;100033.13;5074380;28;20039;-34
2023/11/13 10:03:38;;;;;;;5.70;2.47;;;;;;;8.85;100.00;100039.13;5074655;28;20078;-34
2023/11/13 10:06:13;;;;;;;6.22;2.60;;;;;;;8.87;100.00;100045.06;5074316;28;20448;-34
2023/11/13 10:08:47;;;;;;;5.55;2.70;;;;;;;8.89;100.00;100049.19;5073935;28;20059;-34
2023/11/13 10:11:12;;;;;;;4.82;2.50;;;;;;;8.87;100.00;100037.81;5074748;28;20099;-34
2023/11/13 10:13:37;;;;;;;6.17;3.00;;;;;;;8.90;100.00;100033.81;5074422;28;20441;-34
2023/11/13 10:16:23;;;;;;;7.57;2.60;;;;;;;8.90;100.00;100028.44;5073864;28;20418;-34
2023/11/13 10:18:52;;;;;;;6.20;2.90;;;;;;;8.91;100.00;100021.97;5074101;28;20329;-34
2023/11/13 10:21:33;;;;;;;6.65;2.83;;;;;;;8.94;100.00;100018.81;5073773;28;20024;-34
2023/11/13 10:24:15;;;;;;;7.05;3.10;;;;;;;8.90;100.00;99991.50;5073781;28;20017;-34
2023/11/13 10:26:41;;;;;;;7.70;3.28;;;;;;;8.95;100.00;99999.69;5074545;28;20035;-34
2023/11/13 10:29:26;;;;;;;9.32;3.75;;;;;;;9.00;100.00;99997.09;5073596;28;20074;-34
2023/11/13 10:31:52;;;;;;;9.52;3.83;;;;;;;8.98;100.00;99983.03;5073912;28;20024;-35
2023/11/13 10:34:20;;;;;;;7.75;4.88;;;;;;;8.92;100.00;99970.50;5074153;28;20025;-34
2023/11/13 10:37:06;;;;;;;8.85;5.10;;;;;;;9.03;100.00;99956.16;5073790;28;20036;-34
2023/11/13 10:39:34;;;;;;;9.80;3.92;;;;;;;9.09;100.00;99964.34;5073381;28;20447;-34
2023/11/13 10:42:00;;;;;;;7.38;4.05;;;;;;;9.12;100.00;99955.75;5073583;28;20032;-34
2023/11/13 10:44:27;;;;;;;9.85;4.00;;;;;;;9.14;100.00;99948.25;5073454;28;20475;-34
2023/11/13 10:46:53;;;;;;;10.93;4.40;;;;;;;9.19;100.00;99932.16;5073409;28;20067;-34
2023/11/13 10:49:19;;;;;;;13.18;4.85;;;;;;;9.21;100.00;99930.00;5074249;28;20024;-34
2023/11/13 10:51:49;;;;;;;10.65;4.18;;;;;;;9.18;100.00;99919.72;5074106;28;20401;-34
2023/11/13 10:54:16;;;;;;;10.90;4.75;;;;;;;9.34;100.00;99927.00;5073077;28;20025;-34
2023/11/13 10:56:46;;;;;;;12.43;5.35;;;;;;;9.29;100.00;99922.34;5073256;28;20098;-35
2023/11/13 10:59:12;;;;;;;15.82;5.25;;;;;;;9.24;100.00;99894.47;5074091;28;20070;-35
2023/11/13 11:01:41;;;;;;;10.93;5.13;;;;;;;9.43;100.00;99895.84;5073462;28;20032;-35
2023/11/13 11:04:10;;;;;;;9.68;4.88;;;;;;;9.39;100.00;99875.00;5073571;28;20259;-35
2023/11/13 11:06:39;;;;;;;13.95;5.70;;;;;;;9.40;100.00;99863.94;5073229;28;20041;-35
2023/11/13 11:09:07;;;;;;;13.15;5.93;;;;;;;9.51;100.00;99863.03;5072910;28;20024;-35
2023/11/13 11:11:36;;;;;;;13.30;5.30;;;;;;;9.63;100.00;99852.16;5073772;28;20028;-35
2023/11/13 11:14:09;;;;;;;12.38;5.07;;;;;;;9.66;100.00;99853.50;5073054;28;20388;-35
2023/11/13 11:17:02;;;;;;;16.00;5.78;;;;;;;9.77;100.00;99834.53;5073125;28;20056;-35
2023/11/13 11:19:34;;;;;;;20.13;5.32;;;;;;;9.91;100.00;99844.97;5073452;28;20104;-35